METAR Data
IDs: Format: Raw Decoded Include TAF

Data at: 0214 UTC 24 Sep 2018

KHDO 240151Z AUTO 07003KT 10SM OVC065 24/21 A2990 RMK AO2 SLP111 T02440206
KHDO 240051Z AUTO 07004KT 10SM OVC065 25/21 A2989 RMK AO2 SLP108 T02500206
KHDO 232351Z AUTO 06004KT 10SM OVC060 26/20 A2989 RMK AO2 SLP107 T02610200 10278 20261 56006
KHDO 232251Z AUTO 03004KT 10SM BKN060 27/20 A2989 RMK AO2 SLP107 T02720200
KHDO 232151Z AUTO VRB03KT 10SM FEW047 OVC060 27/21 A2989 RMK AO2 SLP109 T02720206
KHDO 232051Z AUTO 27007KT 10SM SCT038 OVC047 27/19 A2991 RMK AO2 SLP114 T02720194 56021
KHDO 231951Z AUTO 36004KT 10SM OVC039 27/19 A2993 RMK AO2 SLP120 T02720194
KHDO 231851Z AUTO 00000KT 10SM BKN036 OVC045 27/19 A2995 RMK AO2 SLP128 T02720194
KHDO 231751Z AUTO 28004KT 10SM SCT028 OVC033 27/20 A2997 RMK AO2 SLP135 T02720200 10272 20211 56008
KHDO 231747Z AUTO 32005KT 10SM SCT028 OVC033 27/20 A2997 RMK AO2
KHDO 231651Z AUTO 30007KT 10SM OVC026 26/19 A2999 RMK AO2 SLP142 T02560194
KHDO 231551Z AUTO 32008KT 10SM OVC022 25/19 A3000 RMK AO2 SLP143 T02500194
KHDO 231525Z AUTO 31007KT 10SM BKN022 BKN070 24/19 A2999 RMK AO2 T02440194
KHDO 231451Z AUTO 30005KT 10SM FEW034 BKN065 24/19 A2999 RMK AO2 SLP141 T02390194 53008
KHDO 231351Z AUTO 28006KT 10SM SCT050 BKN070 23/19 A2998 RMK AO2 SLP137 T02280189
KHDO 231251Z AUTO 27005KT 10SM FEW025 BKN038 OVC055 21/19 A2996 RMK AO2 SLP134 T02110189
KHDO 231246Z AUTO 26005KT 10SM SCT025 OVC038 21/19 A2996 RMK AO2
KHDO 231151Z AUTO 25004KT 10SM OVC024 21/19 A2995 RMK AO2 SLP129 T02110189 10211 20200 53001
KHDO 231051Z AUTO 27003KT 10SM OVC024 21/18 A2994 RMK AO2 SLP125 T02060183
KHDO 230951Z AUTO 26005KT 10SM OVC022 21/18 A2994 RMK AO2 SLP123 T02060178
KHDO 230851Z AUTO 28005KT 10SM OVC023 21/18 A2995 RMK AO2 SLP127 T02060183 58013
KHDO 230828Z AUTO 26003KT 10SM BKN023 OVC050 21/18 A2996 RMK AO2 T02060183
KHDO 230751Z AUTO 30005KT 10SM OVC050 21/18 A2996 RMK AO2 SLP131 T02060183
KHDO 230651Z AUTO 24003KT 10SM FEW025 OVC048 21/19 A2998 RMK AO2 SLP139 T02060189
KHDO 230551Z AUTO 24004KT 10SM FEW042 20/18 A2999 RMK AO2 SLP141 T02000178 10239 20200 402670200 58001
KHDO 230451Z AUTO 33003KT 10SM SCT041 BKN050 21/17 A2999 RMK AO2 SLP142 T02060172
KHDO 230351Z AUTO 35003KT 10SM OVC040 22/17 A3000 RMK AO2 SLP146 T02170172
KHDO 230251Z AUTO 35006KT 10SM OVC039 22/17 A2999 RMK AO2 SLP144 T02220172 52011
KHDO 230233Z AUTO 35010KT 10SM SCT027 OVC039 22/17 A2999 RMK AO2 T02220172
KHDO 230151Z AUTO 01007KT 10SM BKN028 OVC041 22/17 A2998 RMK AO2 SLP140 T02220172
KHDO 230051Z AUTO 01008KT 10SM OVC029 23/17 A2997 RMK AO2 SLP135 T02280172
KHDO 230017Z AUTO 36008KT 10SM OVC029 23/17 A2996 RMK AO2 T02330172
KHDO 222351Z AUTO 36010KT 10SM OVC030 24/17 A2996 RMK AO2 SLP131 T02390172 10261 20239 51001
KHDO 222251Z AUTO 35011KT 10SM OVC031 24/18 A2996 RMK AO2 SLP130 T02440178
KHDO 222151Z AUTO 35009KT 10SM OVC030 25/18 A2996 RMK AO2 SLP131 T02500183
KHDO 222051Z AUTO 35010KT 10SM OVC030 26/18 A2996 RMK AO2 SLP129 T02560183 58014
KHDO 222029Z AUTO 36006KT 10SM OVC030 26/18 A2996 RMK AO2 T02560183
KHDO 221951Z AUTO 34005KT 10SM OVC026 24/18 A2997 RMK AO2 SLP133 T02440183
KHDO 221902Z AUTO 34009KT 10SM BKN025 24/18 A2999 RMK AO2 T02440178
KHDO 221851Z AUTO 32009KT 10SM SCT025 24/18 A2999 RMK AO2 SLP142 T02440178
KHDO 221751Z AUTO 33012KT 10SM SCT023 26/18 A3000 RMK AO2 SLP142 T02560183 10256 20217 50002
KHDO 221725Z AUTO 33012KT 10SM BKN023 26/19 A3001 RMK AO2 T02560189
KHDO 221651Z AUTO 35011KT 10SM FEW021 25/18 A3001 RMK AO2 SLP146 T02500183
KHDO 221551Z AUTO 35012KT 10SM CLR 23/18 A3001 RMK AO2 SLP146 T02330183
KHDO 221451Z AUTO 01013KT 10SM SCT013 BKN090 22/18 A2999 RMK AO2 SLP142 T02170183 53018